createdAt,value
2023-02-18T00:00:19.714Z,10.00
2023-02-18T00:02:52.175Z,9.90
2023-02-18T00:05:21.106Z,9.90
2023-02-18T00:07:49.513Z,9.90
2023-02-18T00:10:18.139Z,9.90
2023-02-18T00:12:46.887Z,9.80
2023-02-18T00:15:15.326Z,9.80
2023-02-18T00:17:43.689Z,9.70
2023-02-18T00:20:14.084Z,9.70
2023-02-18T00:22:42.485Z,9.70
2023-02-18T00:25:10.937Z,9.70
2023-02-18T00:27:39.509Z,9.60
2023-02-18T00:30:08.689Z,9.70
2023-02-18T00:32:37.448Z,9.70
2023-02-18T00:35:05.976Z,9.70
2023-02-18T00:37:35.836Z,9.60
2023-02-18T00:40:04.359Z,9.70
2023-02-18T00:42:32.839Z,9.70
2023-02-18T00:45:01.267Z,9.70
2023-02-18T00:47:29.659Z,9.60
2023-02-18T00:49:58.118Z,9.60
2023-02-18T00:52:26.640Z,9.60
2023-02-18T00:54:56.448Z,9.50
2023-02-18T00:57:24.928Z,9.50
2023-02-18T00:59:53.368Z,9.50
2023-02-18T01:02:21.729Z,9.50
2023-02-18T01:04:50.132Z,9.50
2023-02-18T01:07:18.525Z,9.40
2023-02-18T01:09:46.966Z,9.40
2023-02-18T01:12:16.804Z,9.40
2023-02-18T01:14:45.222Z,9.40
2023-02-18T01:17:13.600Z,9.30
2023-02-18T01:19:42.026Z,9.30
2023-02-18T01:22:10.440Z,9.30
2023-02-18T01:24:39.482Z,9.30
2023-02-18T01:27:07.908Z,9.30
2023-02-18T01:29:37.698Z,9.30
2023-02-18T01:32:06.280Z,9.30
2023-02-18T01:34:34.935Z,9.30
2023-02-18T01:37:03.366Z,9.30
2023-02-18T01:39:31.881Z,9.30
2023-02-18T01:42:00.322Z,9.30
2023-02-18T01:44:29.884Z,9.30
2023-02-18T01:46:59.738Z,9.30
2023-02-18T01:49:30.192Z,9.30
2023-02-18T01:52:00.285Z,9.30
2023-02-18T01:54:30.433Z,9.20
2023-02-18T01:57:00.053Z,9.30
2023-02-18T01:59:31.934Z,9.20
2023-02-18T02:02:01.830Z,9.20
2023-02-18T02:04:30.506Z,9.10
2023-02-18T02:06:58.921Z,9.10
2023-02-18T02:09:28.111Z,9.00
2023-02-18T02:12:14.202Z,9.00
2023-02-18T02:14:48.628Z,9.00
2023-02-18T02:17:22.808Z,9.00
2023-02-18T02:20:15.280Z,9.00
2023-02-18T02:23:02.034Z,9.00
2023-02-18T02:25:48.037Z,8.90
2023-02-18T02:28:31.879Z,9.00
2023-02-18T02:31:09.617Z,9.10
2023-02-18T02:34:05.473Z,9.10
2023-02-18T02:36:38.071Z,9.10
2023-02-18T02:39:09.300Z,9.10
2023-02-18T02:41:44.634Z,9.10
2023-02-18T02:44:20.241Z,9.10
2023-02-18T02:46:49.567Z,9.10
2023-02-18T02:49:23.690Z,9.20
2023-02-18T02:51:55.498Z,9.20
2023-02-18T02:54:25.464Z,9.20
2023-02-18T02:57:05.542Z,9.20
2023-02-18T02:59:34.384Z,9.20
2023-02-18T03:02:09.226Z,9.20
2023-02-18T03:04:43.971Z,9.30
2023-02-18T03:07:29.950Z,9.20
2023-02-18T03:10:06.347Z,9.30
2023-02-18T03:12:37.300Z,9.30
2023-02-18T03:15:08.824Z,9.20
2023-02-18T03:17:38.672Z,9.30
2023-02-18T03:20:10.488Z,9.20
2023-02-18T03:22:41.134Z,9.20
2023-02-18T03:25:09.997Z,9.20
2023-02-18T03:27:40.982Z,9.10
2023-02-18T03:30:14.464Z,9.10
2023-02-18T03:32:43.798Z,9.10
2023-02-18T03:35:14.201Z,9.10
2023-02-18T03:37:46.823Z,9.10
2023-02-18T03:40:15.419Z,9.00
2023-02-18T03:42:43.828Z,9.00
2023-02-18T03:45:12.343Z,9.00
2023-02-18T03:47:40.721Z,9.00
2023-02-18T03:50:09.775Z,9.00
2023-02-18T03:52:38.203Z,9.00
2023-02-18T03:55:09.361Z,9.10
2023-02-18T03:57:37.774Z,9.10
2023-02-18T04:00:06.848Z,9.00
2023-02-18T04:02:35.208Z,9.00
2023-02-18T04:05:03.606Z,8.90
2023-02-18T04:07:32.024Z,8.90
2023-02-18T04:10:00.426Z,8.90
2023-02-18T04:12:30.254Z,8.80
2023-02-18T04:14:58.724Z,8.80
2023-02-18T04:17:27.191Z,8.70
2023-02-18T04:19:55.714Z,8.70
2023-02-18T04:22:24.100Z,8.70
2023-02-18T04:24:52.488Z,8.70
2023-02-18T04:27:20.925Z,8.60
2023-02-18T04:29:51.096Z,8.60
2023-02-18T04:32:19.444Z,8.50
2023-02-18T04:34:47.827Z,8.60
2023-02-18T04:37:16.309Z,8.50
2023-02-18T04:39:44.719Z,8.50
2023-02-18T04:42:13.114Z,8.40
2023-02-18T04:44:41.574Z,8.40
2023-02-18T04:47:11.380Z,8.30
2023-02-18T04:49:39.940Z,8.40
2023-02-18T04:52:08.434Z,8.30
2023-02-18T04:54:36.835Z,8.40
2023-02-18T04:57:05.243Z,8.40
2023-02-18T04:59:33.766Z,8.40
2023-02-18T05:02:02.201Z,8.40
2023-02-18T05:04:32.008Z,8.40
2023-02-18T05:07:00.462Z,8.50
2023-02-18T05:09:29.010Z,8.50
2023-02-18T05:11:57.469Z,8.70
2023-02-18T05:14:25.880Z,8.60
2023-02-18T05:16:54.287Z,8.50
2023-02-18T05:19:22.650Z,8.50
2023-02-18T05:21:52.475Z,8.40
2023-02-18T05:24:20.920Z,8.20
2023-02-18T05:26:49.329Z,8.20
2023-02-18T05:29:17.781Z,8.10
2023-02-18T05:31:46.328Z,8.20
2023-02-18T05:34:14.860Z,8.10
2023-02-18T05:36:43.305Z,8.10
2023-02-18T05:39:13.122Z,8.10
2023-02-18T05:41:44.460Z,8.00
2023-02-18T05:44:30.052Z,8.00
2023-02-18T05:46:58.855Z,8.00
2023-02-18T05:49:27.284Z,7.90
2023-02-18T05:51:55.685Z,8.00
2023-02-18T05:54:25.733Z,8.00
2023-02-18T05:56:54.169Z,8.00
2023-02-18T05:59:22.712Z,8.10
2023-02-18T06:01:51.287Z,8.10
2023-02-18T06:04:19.693Z,8.10
2023-02-18T06:06:48.286Z,8.00
2023-02-18T06:09:16.759Z,8.00
2023-02-18T06:11:46.639Z,7.90
2023-02-18T06:14:15.101Z,7.90
2023-02-18T06:16:43.566Z,7.90
2023-02-18T06:19:11.975Z,8.00
2023-02-18T06:21:40.418Z,8.00
2023-02-18T06:24:08.940Z,8.00
2023-02-18T06:26:37.412Z,8.00
2023-02-18T06:29:07.208Z,8.10
2023-02-18T06:31:35.755Z,8.10
2023-02-18T06:34:04.311Z,8.00
2023-02-18T06:36:32.715Z,8.00
2023-02-18T06:39:01.140Z,8.00
2023-02-18T06:41:29.583Z,8.00
2023-02-18T06:43:58.059Z,8.00
2023-02-18T06:46:27.919Z,8.10
2023-02-18T06:48:56.343Z,8.10
2023-02-18T06:51:25.564Z,8.20
2023-02-18T06:53:54.041Z,8.20
2023-02-18T06:56:22.469Z,8.30
2023-02-18T06:58:50.862Z,8.40
2023-02-18T07:01:19.334Z,8.40
2023-02-18T07:03:50.282Z,8.40
2023-02-18T07:06:18.883Z,8.40
2023-02-18T07:08:47.390Z,8.40
2023-02-18T07:11:15.920Z,8.40
2023-02-18T07:13:44.332Z,8.50
2023-02-18T07:16:12.860Z,8.60
2023-02-18T07:18:42.859Z,8.60
2023-02-18T07:21:12.668Z,8.70
2023-02-18T07:23:41.162Z,8.70
2023-02-18T07:26:10.408Z,8.70
2023-02-18T07:28:39.103Z,8.80
2023-02-18T07:31:07.732Z,8.80
2023-02-18T07:33:36.145Z,8.90
2023-02-18T07:36:04.996Z,8.90
2023-02-18T07:38:34.836Z,9.00
2023-02-18T07:41:03.321Z,9.10
2023-02-18T07:43:31.815Z,9.10
2023-02-18T07:46:02.020Z,9.10
2023-02-18T07:48:30.473Z,9.10
2023-02-18T07:50:58.912Z,9.20
2023-02-18T07:53:27.361Z,9.30
2023-02-18T07:56:00.292Z,9.30
2023-02-18T07:58:29.799Z,9.40
2023-02-18T08:00:58.354Z,9.50
2023-02-18T08:03:27.577Z,9.50
2023-02-18T08:05:56.791Z,9.60
2023-02-18T08:08:26.347Z,9.80
2023-02-18T08:10:55.959Z,9.90
2023-02-18T08:13:25.921Z,10.10
2023-02-18T08:15:55.933Z,10.30
2023-02-18T08:18:25.201Z,10.50
2023-02-18T08:20:54.040Z,10.60
2023-02-18T08:23:23.408Z,10.80
2023-02-18T08:25:52.285Z,10.90
2023-02-18T08:28:21.690Z,11.00
2023-02-18T08:30:52.457Z,11.10
2023-02-18T08:33:21.417Z,11.20
2023-02-18T08:35:50.669Z,11.30
2023-02-18T08:38:19.100Z,11.40
2023-02-18T08:40:47.514Z,11.50
2023-02-18T08:43:16.511Z,11.60
2023-02-18T08:45:45.373Z,11.70
2023-02-18T08:48:20.487Z,11.80
2023-02-18T08:50:49.541Z,11.90
2023-02-18T08:53:18.078Z,12.10
2023-02-18T08:55:46.756Z,12.20
2023-02-18T08:58:15.168Z,12.40
2023-02-18T09:00:44.331Z,12.50
2023-02-18T09:03:14.173Z,12.70
2023-02-18T09:05:44.036Z,12.90
2023-02-18T09:08:12.577Z,13.00
2023-02-18T09:10:40.990Z,13.10
2023-02-18T09:13:09.380Z,13.10
2023-02-18T09:15:38.012Z,13.10
2023-02-18T09:18:06.475Z,13.10
2023-02-18T09:20:34.981Z,13.20
2023-02-18T09:23:04.816Z,13.20
2023-02-18T09:25:33.218Z,13.10
2023-02-18T09:28:01.674Z,13.10
2023-02-18T09:30:30.151Z,13.10
2023-02-18T09:32:58.630Z,13.10
2023-02-18T09:35:27.001Z,13.20
2023-02-18T09:37:55.435Z,13.20
2023-02-18T09:40:28.258Z,13.20
2023-02-18T09:42:57.655Z,13.20
2023-02-18T09:45:26.648Z,13.20
2023-02-18T09:47:55.450Z,13.30
2023-02-18T09:50:24.955Z,13.40
2023-02-18T09:52:53.568Z,13.40
2023-02-18T09:55:23.463Z,13.50
2023-02-18T09:57:54.674Z,13.50
2023-02-18T10:00:24.489Z,13.50
2023-02-18T10:02:56.293Z,13.50
2023-02-18T10:05:25.749Z,13.40
2023-02-18T10:07:55.464Z,13.40
2023-02-18T10:10:28.650Z,13.30
2023-02-18T10:12:59.630Z,13.40
2023-02-18T10:15:30.506Z,13.40
2023-02-18T10:17:59.545Z,13.40
2023-02-18T10:20:30.040Z,13.30
2023-02-18T10:23:00.285Z,13.30
2023-02-18T10:25:29.646Z,13.20
2023-02-18T10:28:00.047Z,13.40
2023-02-18T10:30:31.880Z,13.40
2023-02-18T10:33:02.579Z,13.60
2023-02-18T10:35:32.639Z,13.70
2023-02-18T10:38:07.942Z,13.60
2023-02-18T10:40:40.180Z,13.50
2023-02-18T10:43:13.988Z,13.40
2023-02-18T10:45:47.654Z,13.30
2023-02-18T10:48:22.292Z,13.30
2023-02-18T10:50:51.129Z,13.40
2023-02-18T10:53:23.429Z,13.40
2023-02-18T10:55:54.559Z,13.40
2023-02-18T10:58:29.418Z,13.30
2023-02-18T11:00:58.081Z,13.50
2023-02-18T11:03:39.486Z,13.40
2023-02-18T11:06:08.600Z,13.40
2023-02-18T11:08:40.405Z,13.40
2023-02-18T11:11:10.824Z,13.40
2023-02-18T11:13:41.950Z,13.40
2023-02-18T11:16:13.171Z,13.40
2023-02-18T11:18:42.319Z,13.40
2023-02-18T11:21:21.743Z,13.40
2023-02-18T11:23:51.203Z,13.30
2023-02-18T11:26:24.136Z,13.30
2023-02-18T11:28:58.579Z,13.30
2023-02-18T11:31:28.533Z,13.30
2023-02-18T11:33:58.155Z,13.10
2023-02-18T11:36:29.007Z,13.10
2023-02-18T11:38:58.584Z,13.00
2023-02-18T11:41:35.268Z,13.00
2023-02-18T11:44:06.123Z,13.10
2023-02-18T11:46:34.692Z,13.20
2023-02-18T11:49:21.379Z,13.20
2023-02-18T11:51:50.591Z,13.20
2023-02-18T11:54:26.775Z,13.30
2023-02-18T11:56:56.421Z,13.30
2023-02-18T11:59:26.264Z,13.40
2023-02-18T12:01:56.872Z,13.40
2023-02-18T12:04:28.573Z,13.50
2023-02-18T12:07:02.320Z,13.60
2023-02-18T12:09:32.475Z,13.60
2023-02-18T12:12:02.871Z,13.60
2023-02-18T12:14:33.581Z,13.50
2023-02-18T12:17:11.950Z,13.40
2023-02-18T12:20:01.117Z,13.40
2023-02-18T12:22:35.551Z,13.40
2023-02-18T12:25:16.237Z,13.40
2023-02-18T12:27:48.207Z,13.40
2023-02-18T12:30:28.503Z,13.50
2023-02-18T12:33:01.435Z,13.50
2023-02-18T12:35:41.048Z,13.50
2023-02-18T12:38:19.232Z,13.50
2023-02-18T12:40:53.709Z,13.40
2023-02-18T12:43:28.363Z,13.40
2023-02-18T12:46:10.153Z,13.40
2023-02-18T12:48:41.908Z,13.50
2023-02-18T12:51:15.045Z,13.70
2023-02-18T12:53:50.248Z,13.60
2023-02-18T12:56:39.327Z,13.50
2023-02-18T12:59:12.615Z,13.40
2023-02-18T13:01:47.933Z,13.40
2023-02-18T13:04:31.123Z,13.40
2023-02-18T13:07:12.276Z,13.40
2023-02-18T13:09:46.873Z,13.40
2023-02-18T13:12:18.771Z,13.40
2023-02-18T13:14:49.770Z,13.30
2023-02-18T13:17:20.990Z,13.30
2023-02-18T13:19:51.723Z,13.30
2023-02-18T13:22:21.934Z,13.30
2023-02-18T13:24:51.768Z,13.30
2023-02-18T13:27:23.062Z,13.40
2023-02-18T13:29:54.802Z,13.40
2023-02-18T13:32:28.027Z,13.30
2023-02-18T13:35:00.503Z,13.30
2023-02-18T13:37:33.533Z,13.30
2023-02-18T13:40:02.271Z,13.30
2023-02-18T13:42:38.255Z,13.20
2023-02-18T13:45:33.555Z,13.20
2023-02-18T13:48:03.482Z,13.20
2023-02-18T13:50:33.739Z,13.30
2023-02-18T13:53:15.032Z,13.40
2023-02-18T13:55:48.444Z,13.40
2023-02-18T13:58:20.146Z,13.40
2023-02-18T14:00:50.486Z,13.20
2023-02-18T14:03:36.036Z,13.20
2023-02-18T14:06:14.177Z,13.10
2023-02-18T14:08:42.855Z,13.20
2023-02-18T14:11:29.737Z,13.10
2023-02-18T14:14:15.533Z,13.20
2023-02-18T14:17:02.307Z,13.10
2023-02-18T14:19:32.213Z,13.10
2023-02-18T14:22:15.512Z,13.10
2023-02-18T14:24:44.959Z,12.90
2023-02-18T14:27:16.718Z,12.90
2023-02-18T14:29:45.343Z,13.00
2023-02-18T14:32:15.514Z,13.00
2023-02-18T14:34:54.365Z,13.10
2023-02-18T14:37:40.423Z,13.20
2023-02-18T14:40:18.727Z,13.10
2023-02-18T14:42:51.855Z,13.10
2023-02-18T14:45:25.349Z,13.00
2023-02-18T14:48:05.204Z,12.90
2023-02-18T14:50:36.486Z,13.00
2023-02-18T14:53:06.548Z,12.90
2023-02-18T14:55:36.257Z,12.80
2023-02-18T14:58:07.157Z,12.70
2023-02-18T15:00:36.498Z,12.80
2023-02-18T15:03:04.944Z,12.80
2023-02-18T15:05:34.271Z,12.70
2023-02-18T15:08:05.244Z,12.80
2023-02-18T15:10:39.152Z,12.90
2023-02-18T15:13:10.799Z,12.90
2023-02-18T15:15:39.245Z,12.80
2023-02-18T15:18:13.202Z,12.80
2023-02-18T15:20:41.727Z,12.80
2023-02-18T15:23:14.038Z,12.80
2023-02-18T15:25:42.699Z,12.70
2023-02-18T15:28:21.820Z,12.70
2023-02-18T15:30:50.304Z,12.70
2023-02-18T15:33:20.247Z,12.70
2023-02-18T15:35:48.847Z,12.60
2023-02-18T15:38:19.585Z,12.60
2023-02-18T15:40:49.481Z,12.60
2023-02-18T15:43:20.107Z,12.70
2023-02-18T15:45:49.286Z,12.70
2023-02-18T15:48:23.202Z,12.70
2023-02-18T15:50:52.991Z,12.70
2023-02-18T15:53:23.466Z,12.70
2023-02-18T15:55:54.458Z,12.70
2023-02-18T15:58:24.752Z,12.60
2023-02-18T16:00:54.153Z,12.60
2023-02-18T16:03:23.355Z,12.60
2023-02-18T16:05:52.209Z,12.60
2023-02-18T16:08:27.092Z,12.50
2023-02-18T16:10:56.815Z,12.50
2023-02-18T16:13:26.922Z,12.40
2023-02-18T16:15:55.531Z,12.40
2023-02-18T16:18:28.888Z,12.40
2023-02-18T16:20:58.480Z,12.40
2023-02-18T16:23:33.456Z,12.40
2023-02-18T16:26:10.890Z,12.40
2023-02-18T16:28:43.430Z,12.30
2023-02-18T16:31:12.163Z,12.30
2023-02-18T16:33:40.620Z,12.30
2023-02-18T16:36:12.125Z,12.20
2023-02-18T16:38:42.219Z,12.20
2023-02-18T16:41:11.444Z,12.10
2023-02-18T16:43:39.914Z,12.00
2023-02-18T16:46:09.706Z,12.10
2023-02-18T16:48:40.632Z,12.10
2023-02-18T16:51:12.109Z,12.00
2023-02-18T16:53:41.975Z,12.00
2023-02-18T16:56:14.934Z,11.90
2023-02-18T16:58:43.613Z,11.90
2023-02-18T17:01:20.368Z,11.90
2023-02-18T17:03:49.638Z,11.90
2023-02-18T17:06:18.186Z,11.90
2023-02-18T17:08:48.249Z,11.90
2023-02-18T17:11:20.545Z,11.80
2023-02-18T17:13:49.685Z,11.70
2023-02-18T17:16:18.325Z,11.60
2023-02-18T17:18:47.374Z,11.60
2023-02-18T17:21:16.275Z,11.60
2023-02-18T17:23:44.734Z,11.70
2023-02-18T17:26:16.851Z,11.80
2023-02-18T17:28:45.261Z,11.70
2023-02-18T17:31:15.673Z,11.70
2023-02-18T17:33:44.500Z,11.70
2023-02-18T17:36:13.324Z,11.60
2023-02-18T17:38:41.734Z,11.60
2023-02-18T17:41:11.461Z,11.50
2023-02-18T17:43:41.306Z,11.50
2023-02-18T17:46:11.952Z,11.40
2023-02-18T17:48:40.611Z,11.40
2023-02-18T17:51:09.329Z,11.30
2023-02-18T17:53:37.810Z,11.30
2023-02-18T17:56:06.285Z,11.30
2023-02-18T17:58:34.713Z,11.30
2023-02-18T18:01:04.637Z,11.20
2023-02-18T18:03:33.118Z,11.20
2023-02-18T18:06:04.725Z,11.20
2023-02-18T18:08:33.182Z,11.10
2023-02-18T18:11:05.915Z,11.10
2023-02-18T18:13:34.368Z,11.00
2023-02-18T18:16:04.386Z,11.00
2023-02-18T18:18:32.802Z,11.00
2023-02-18T18:21:02.288Z,10.90
2023-02-18T18:23:32.862Z,10.90
2023-02-18T18:26:01.554Z,10.90
2023-02-18T18:28:33.027Z,10.90
2023-02-18T18:31:02.734Z,10.90
2023-02-18T18:33:33.664Z,10.90
2023-02-18T18:36:02.433Z,10.90
2023-02-18T18:38:31.082Z,10.80
2023-02-18T18:40:59.555Z,10.80
2023-02-18T18:43:31.386Z,10.70
2023-02-18T18:46:01.225Z,10.80
2023-02-18T18:48:29.629Z,10.70
2023-02-18T18:51:00.781Z,10.70
2023-02-18T18:53:29.933Z,10.70
2023-02-18T18:55:59.103Z,10.70
2023-02-18T18:58:27.549Z,10.70
2023-02-18T19:00:56.804Z,10.60
2023-02-18T19:03:25.950Z,10.70
2023-02-18T19:05:54.758Z,10.60
2023-02-18T19:08:24.607Z,10.60
2023-02-18T19:10:54.495Z,10.60
2023-02-18T19:13:23.620Z,10.50
2023-02-18T19:15:53.891Z,10.60
2023-02-18T19:18:22.424Z,10.50
2023-02-18T19:20:50.833Z,10.50
2023-02-18T19:23:19.298Z,10.50
2023-02-18T19:25:49.113Z,10.50
2023-02-18T19:28:18.916Z,10.50
2023-02-18T19:30:49.077Z,10.50
2023-02-18T19:33:17.543Z,10.50
2023-02-18T19:35:46.188Z,10.50
2023-02-18T19:38:15.439Z,10.50
2023-02-18T19:40:44.120Z,10.50
2023-02-18T19:43:14.358Z,10.50
2023-02-18T19:45:43.905Z,10.40
2023-02-18T19:48:12.815Z,10.50
2023-02-18T19:50:41.800Z,10.50
2023-02-18T19:53:10.512Z,10.40
2023-02-18T19:55:39.110Z,10.40
2023-02-18T19:58:07.546Z,10.40
2023-02-18T20:00:37.415Z,10.40
2023-02-18T20:03:05.764Z,10.30
2023-02-18T20:05:37.584Z,10.40
2023-02-18T20:08:05.978Z,10.40
2023-02-18T20:10:34.454Z,10.40
2023-02-18T20:13:04.606Z,10.40
2023-02-18T20:15:33.095Z,10.40
2023-02-18T20:18:02.925Z,10.30
2023-02-18T20:20:31.293Z,10.30
2023-02-18T20:22:59.717Z,10.30
2023-02-18T20:25:28.298Z,10.30
2023-02-18T20:28:01.143Z,10.30
2023-02-18T20:30:30.024Z,10.30
2023-02-18T20:32:58.466Z,10.20
2023-02-18T20:35:28.351Z,10.20
2023-02-18T20:37:56.775Z,10.10
2023-02-18T20:40:25.544Z,10.20
2023-02-18T20:42:53.905Z,10.10
2023-02-18T20:45:22.324Z,10.20
2023-02-18T20:47:50.718Z,10.20
2023-02-18T20:50:19.116Z,10.20
2023-02-18T20:52:48.976Z,10.20
2023-02-18T20:55:17.544Z,10.20
2023-02-18T20:57:45.995Z,10.30
2023-02-18T21:00:14.982Z,10.20
2023-02-18T21:02:43.547Z,10.20
2023-02-18T21:05:12.040Z,10.20
2023-02-18T21:07:40.497Z,10.20
2023-02-18T21:10:10.559Z,10.20
2023-02-18T21:12:38.937Z,10.20
2023-02-18T21:15:07.621Z,10.20
2023-02-18T21:17:35.979Z,10.20
2023-02-18T21:20:04.659Z,10.30
2023-02-18T21:22:33.100Z,10.30
2023-02-18T21:25:01.555Z,10.40
2023-02-18T21:27:31.290Z,10.40
2023-02-18T21:29:59.859Z,10.40
2023-02-18T21:32:28.332Z,10.40
2023-02-18T21:34:56.784Z,10.40
2023-02-18T21:37:25.219Z,10.40
2023-02-18T21:39:53.643Z,10.40
2023-02-18T21:42:22.051Z,10.40
2023-02-18T21:44:51.988Z,10.40
2023-02-18T21:47:20.474Z,10.30
2023-02-18T21:49:48.902Z,10.40
2023-02-18T21:52:17.354Z,10.40
2023-02-18T21:54:46.316Z,10.40
2023-02-18T21:57:15.686Z,10.40
2023-02-18T21:59:45.353Z,10.40
2023-02-18T22:02:16.116Z,10.50
2023-02-18T22:04:44.637Z,10.50
2023-02-18T22:07:13.106Z,10.60
2023-02-18T22:09:41.687Z,10.60
2023-02-18T22:12:11.776Z,10.50
2023-02-18T22:14:40.286Z,10.60
2023-02-18T22:17:09.010Z,10.60
2023-02-18T22:19:38.839Z,10.50
2023-02-18T22:22:07.253Z,10.50
2023-02-18T22:24:35.816Z,10.50
2023-02-18T22:27:04.323Z,10.50
2023-02-18T22:29:32.782Z,10.50
2023-02-18T22:32:01.417Z,10.40
2023-02-18T22:34:29.943Z,10.40
2023-02-18T22:36:59.683Z,10.40
2023-02-18T22:39:28.154Z,10.40
2023-02-18T22:41:56.636Z,10.40
2023-02-18T22:44:26.285Z,10.30
2023-02-18T22:46:55.899Z,10.40
2023-02-18T22:49:24.644Z,10.30
2023-02-18T22:51:53.952Z,10.30
2023-02-18T22:54:23.957Z,10.30
2023-02-18T22:56:54.276Z,10.30
2023-02-18T22:59:22.729Z,10.30
2023-02-18T23:01:53.007Z,10.30
2023-02-18T23:04:22.011Z,10.30
2023-02-18T23:06:51.033Z,10.30
2023-02-18T23:09:20.620Z,10.30
2023-02-18T23:11:52.335Z,10.40
2023-02-18T23:14:21.754Z,10.40
2023-02-18T23:17:08.896Z,10.40
2023-02-18T23:19:37.912Z,10.40
2023-02-18T23:22:06.630Z,10.40
2023-02-18T23:24:35.849Z,10.40
2023-02-18T23:27:05.962Z,10.40
2023-02-18T23:29:34.350Z,10.40
2023-02-18T23:32:03.357Z,10.40
2023-02-18T23:34:32.109Z,10.40
2023-02-18T23:37:01.699Z,10.30
2023-02-18T23:39:30.355Z,10.30
2023-02-18T23:41:58.847Z,10.30
2023-02-18T23:44:28.972Z,10.30
2023-02-18T23:46:57.342Z,10.20
2023-02-18T23:49:26.622Z,10.20
2023-02-18T23:51:55.589Z,10.20
2023-02-18T23:54:24.145Z,10.20
2023-02-18T23:56:52.691Z,10.20
2023-02-18T23:59:21.105Z,10.20
